Time;durP1;ratioP1;P1;durP2;ratioP2;P2;SDS_P1;SDS_P2;PMS_P1;PMS_P2;Temp;Humidity;BMP_temperature;BMP_pressure;BME280_temperature;BME280_humidity;BME280_pressure;Samples;Min_cycle;Max_cycle;Signal;HPM_P1;HPM_P2
2022/12/14 00:02:25;;;;;;;;;;;;;;;2.84;100.00;99867.06;5017718;28;19921;-86
2022/12/14 00:04:51;;;;;;;;;;;;;;;2.88;100.00;99855.41;5016107;28;20016;-87
2022/12/14 00:07:16;;;;;;;;;;;;;;;2.99;100.00;99859.69;5018388;28;19922;-83
2022/12/14 00:09:42;;;;;;;;;;;;;;;2.79;100.00;99865.78;5018218;28;19921;-84
2022/12/14 00:12:07;;;;;;;;;;;;;;;2.54;100.00;99867.84;5016930;28;19988;-88
2022/12/14 00:14:32;;;;;;;;;;;;;;;2.37;100.00;99857.94;5016045;28;20275;-85
2022/12/14 00:16:58;;;;;;;;;;;;;;;2.20;100.00;99855.88;5014838;28;19925;-87
2022/12/14 00:19:23;;;;;;;;;;;;;;;2.13;100.00;99859.94;5016425;28;19926;-83
2022/12/14 00:21:49;;;;;;;;;;;;;;;2.25;100.00;99856.34;5015965;28;19925;-87
2022/12/14 00:24:15;;;;;;;;;;;;;;;2.09;100.00;99853.31;5016190;28;19917;-86
2022/12/14 00:26:40;;;;;;;;;;;;;;;2.01;100.00;99847.88;5017192;28;19921;-87
2022/12/14 00:29:05;;;;;;;;;;;;;;;1.89;100.00;99838.44;5015986;28;19929;-86
2022/12/14 00:31:35;;;;;;;;;;;;;;;1.85;100.00;99844.84;5013763;28;19921;-86
2022/12/14 00:34:00;;;;;;;;;;;;;;;1.82;100.00;99838.09;5016546;28;19948;-85
2022/12/14 00:36:26;;;;;;;;;;;;;;;1.77;100.00;99832.41;5016170;28;20367;-89
2022/12/14 00:38:51;;;;;;;;;;;;;;;1.81;100.00;99835.59;5016344;28;19917;-91
2022/12/14 00:41:17;;;;;;;;;;;;;;;1.87;100.00;99838.53;4998850;28;19998;-86
2022/12/14 00:43:42;;;;;;;;;;;;;;;1.92;100.00;99843.41;5015384;28;19928;-87
2022/12/14 00:46:08;;;;;;;;;;;;;;;1.86;100.00;99836.88;5014418;28;19929;-87
2022/12/14 00:48:33;;;;;;;;;;;;;;;2.00;100.00;99835.75;5015936;28;20052;-84
2022/12/14 00:50:59;;;;;;;;;;;;;;;2.30;100.00;99825.41;5025848;28;19926;-84
2022/12/14 00:53:24;;;;;;;;;;;;;;;2.38;100.00;99817.78;5026706;28;19921;-89
2022/12/14 00:55:50;;;;;;;;;;;;;;;2.46;100.00;99824.97;5015810;28;19964;-88
2022/12/14 00:58:16;;;;;;;;;;;;;;;2.38;100.00;99820.41;5017169;28;20360;-90
2022/12/14 01:00:46;;;;;;;;;;;;;;;2.43;100.00;99833.91;5016881;28;20388;-90
2022/12/14 01:03:11;;;;;;;;;;;;;;;2.60;100.00;99817.63;5016186;28;19929;-89
2022/12/14 01:05:38;;;;;;;;;;;;;;;2.47;100.00;99824.84;5015717;28;19926;-89
2022/12/14 01:08:03;;;;;;;;;;;;;;;2.40;100.00;99841.16;5016320;28;19917;-90
2022/12/14 01:10:29;;;;;;;;;;;;;;;2.48;100.00;99842.22;5016193;28;19928;-90
2022/12/14 01:12:54;;;;;;;;;;;;;;;2.35;100.00;99835.50;5016019;28;19944;-89
2022/12/14 01:15:20;;;;;;;;;;;;;;;2.41;100.00;99822.75;5015398;28;19913;-89
2022/12/14 01:17:45;;;;;;;;;;;;;;;2.51;100.00;99831.50;5015889;28;19921;-86
2022/12/14 01:20:10;;;;;;;;;;;;;;;2.43;100.00;99828.69;5016317;28;19917;-92
2022/12/14 01:22:36;;;;;;;;;;;;;;;2.71;100.00;99834.22;5019769;28;19926;-88
2022/12/14 01:25:02;;;;;;;;;;;;;;;2.75;100.00;99828.59;5022825;28;19992;-88
2022/12/14 01:27:28;;;;;;;;;;;;;;;2.43;100.00;99823.44;5039699;28;19922;-89
2022/12/14 01:29:53;;;;;;;;;;;;;;;2.43;100.00;99828.69;5040162;28;19953;-85
2022/12/14 01:32:18;;;;;;;;;;;;;;;2.38;100.00;99830.84;5040803;28;19981;-85
2022/12/14 01:34:44;;;;;;;;;;;;;;;2.26;100.00;99824.00;5041006;28;19914;-86
2022/12/14 01:37:09;;;;;;;;;;;;;;;2.44;100.00;99819.88;5037960;28;19926;-89
2022/12/14 01:39:34;;;;;;;;;;;;;;;2.67;100.00;99822.34;5027317;28;19988;-88
2022/12/14 01:42:00;;;;;;;;;;;;;;;2.90;100.00;99821.22;5036370;28;19983;-85
2022/12/14 01:44:25;;;;;;;;;;;;;;;2.80;100.00;99818.56;5039238;28;20012;-88
2022/12/14 01:46:56;;;;;;;;;;;;;;;2.66;100.00;99813.66;5040826;28;19917;-86
2022/12/14 01:49:40;;;;;;;;;;;;;;;2.80;100.00;99815.13;5028238;28;19968;-90
2022/12/14 01:52:08;;;;;;;;;;;;;;;2.49;100.00;99806.41;5016271;28;19921;-89
2022/12/14 01:54:36;;;;;;;;;;;;;;;2.45;100.00;99805.81;5015248;28;20378;-89
2022/12/14 01:57:02;;;;;;;;;;;;;;;2.32;100.00;99805.19;5016337;28;19922;-89
2022/12/14 01:59:36;;;;;;;;;;;;;;;2.25;100.00;99793.63;5016670;28;20390;-90
2022/12/14 02:02:03;;;;;;;;;;;;;;;2.48;100.00;99789.91;5015771;28;19922;-91
2022/12/14 02:04:29;;;;;;;;;;;;;;;2.37;100.00;99784.75;5017482;28;19949;-89
2022/12/14 02:06:54;;;;;;;;;;;;;;;2.28;100.00;99782.91;5016194;28;19918;-88
2022/12/14 02:09:24;;;;;;;;;;;;;;;2.22;100.00;99786.00;5015733;28;19921;-86
2022/12/14 02:12:08;;;;;;;;;;;;;;;2.45;100.00;99774.44;5016115;28;19925;-86
2022/12/14 02:14:34;;;;;;;;;;;;;;;2.45;100.00;99778.88;5014795;28;20282;-88
2022/12/14 02:16:59;;;;;;;;;;;;;;;2.64;100.00;99778.16;5016148;28;19925;-89
2022/12/14 02:19:25;;;;;;;;;;;;;;;2.79;100.00;99772.44;5014529;28;19926;-88
2022/12/14 02:21:50;;;;;;;;;;;;;;;2.73;100.00;99764.28;5014738;28;19922;-88
2022/12/14 02:24:16;;;;;;;;;;;;;;;2.98;100.00;99761.22;5015781;28;19921;-88
2022/12/14 02:27:09;;;;;;;;;;;;;;;3.00;100.00;99760.13;5016012;28;19921;-89
2022/12/14 02:29:34;;;;;;;;;;;;;;;2.99;100.00;99758.47;5015868;28;19933;-88
2022/12/14 02:32:09;;;;;;;;;;;;;;;3.24;100.00;99756.34;5015488;28;19918;-91
2022/12/14 02:34:34;;;;;;;;;;;;;;;2.99;100.00;99762.84;5015673;28;19969;-87
2022/12/14 02:37:20;;;;;;;;;;;;;;;3.01;100.00;99761.78;5016037;28;19921;-87
2022/12/14 02:39:54;;;;;;;;;;;;;;;3.07;100.00;99749.94;5001929;28;19999;-86
2022/12/14 02:42:43;;;;;;;;;;;;;;;3.09;100.00;99750.63;5014387;28;19977;-90
2022/12/14 02:45:16;;;;;;;;;;;;;;;3.29;100.00;99748.88;5005222;28;20412;-90
2022/12/14 02:47:53;;;;;;;;;;;;;;;3.30;100.00;99754.00;5014348;28;19921;-89
2022/12/14 02:50:21;;;;;;;;;;;;;;;3.03;100.00;99749.38;5015617;28;19967;-89
2022/12/14 02:52:53;;;;;;;;;;;;;;;3.05;100.00;99749.25;5015327;28;20417;-90
2022/12/14 02:55:18;;;;;;;;;;;;;;;3.18;100.00;99744.63;5015184;28;19967;-88
2022/12/14 02:57:48;;;;;;;;;;;;;;;3.26;100.00;99733.44;5015164;28;20378;-87
2022/12/14 03:00:14;;;;;;;;;;;;;;;3.45;100.00;99744.78;5015394;28;19925;-88
2022/12/14 03:02:41;;;;;;;;;;;;;;;3.11;100.00;99735.63;5017867;28;20002;-85
2022/12/14 03:05:08;;;;;;;;;;;;;;;3.03;100.00;99740.69;5027383;28;19926;-88
2022/12/14 03:07:48;;;;;;;;;;;;;;;2.99;100.00;99731.44;5014022;28;19929;-89
2022/12/14 03:10:29;;;;;;;;;;;;;;;3.08;100.00;99718.38;5015098;28;19925;-86
2022/12/14 03:13:33;;;;;;;;;;;;;;;2.63;100.00;99721.53;5013846;28;19979;-90
2022/12/14 03:16:12;;;;;;;;;;;;;;;2.52;100.00;99718.06;4934926;29;20033;-88
2022/12/14 03:18:41;;;;;;;;;;;;;;;2.76;100.00;99712.50;4935793;29;19930;-87
2022/12/14 03:21:09;;;;;;;;;;;;;;;2.86;100.00;99712.53;4936199;29;19930;-87
2022/12/14 03:23:35;;;;;;;;;;;;;;;2.87;100.00;99716.81;4919241;29;19970;-88
2022/12/14 03:26:12;;;;;;;;;;;;;;;2.93;100.00;99709.28;4935026;29;19946;-87
2022/12/14 03:28:42;;;;;;;;;;;;;;;3.18;100.00;99700.13;4934886;29;20273;-85
2022/12/14 03:31:14;;;;;;;;;;;;;;;3.21;100.00;99684.13;4934830;29;20038;-86
2022/12/14 03:33:41;;;;;;;;;;;;;;;3.21;100.00;99678.91;4934565;29;19982;-83
2022/12/14 03:36:22;;;;;;;;;;;;;;;3.03;100.00;99667.41;4918789;29;20454;-85
2022/12/14 03:38:49;;;;;;;;;;;;;;;2.78;100.00;99665.31;4934475;29;19988;-84
2022/12/14 03:41:26;;;;;;;;;;;;;;;2.72;100.00;99664.03;4918639;29;19923;-84
2022/12/14 03:43:54;;;;;;;;;;;;;;;2.73;100.00;99659.63;4934408;29;19933;-83
2022/12/14 03:46:29;;;;;;;;;;;;;;;2.72;100.00;99656.19;4962062;28;20384;-83
2022/12/14 03:49:00;;;;;;;;;;;;;;;2.84;100.00;99654.28;5013909;28;19917;-87
2022/12/14 03:51:44;;;;;;;;;;;;;;;2.75;100.00;99653.28;5014155;28;19921;-85
2022/12/14 03:54:14;;;;;;;;;;;;;;;2.80;100.00;99660.75;5014531;28;19917;-83
2022/12/14 03:56:46;;;;;;;;;;;;;;;2.86;100.00;99654.97;5014376;28;20305;-84
2022/12/14 03:59:26;;;;;;;;;;;;;;;2.65;100.00;99639.38;5014571;28;19924;-86
2022/12/14 04:01:59;;;;;;;;;;;;;;;2.63;100.00;99646.53;5015939;28;19921;-85
2022/12/14 04:04:43;;;;;;;;;;;;;;;2.80;100.00;99642.44;5015345;28;19930;-83
2022/12/14 04:07:11;;;;;;;;;;;;;;;2.77;100.00;99627.00;5013062;28;19972;-83
2022/12/14 04:09:55;;;;;;;;;;;;;;;2.32;100.00;99622.19;5012804;28;19922;-86
2022/12/14 04:20:54;;;;;;;;;;;;;;;2.54;100.00;99632.47;5014202;28;20008;-86
2022/12/14 04:26:11;;;;;;;;;;;;;;;2.59;100.00;99629.44;5013762;28;20398;-85
2022/12/14 04:31:27;;;;;;;;;;;;;;;2.36;100.00;99623.59;5015226;28;19921;-82
2022/12/14 04:33:53;;;;;;;;;;;;;;;2.29;100.00;99630.28;5014569;28;19936;-84
2022/12/14 04:36:28;;;;;;;;;;;;;;;2.13;100.00;99629.13;5014908;28;19939;-81
2022/12/14 04:39:04;;;;;;;;;;;;;;;2.13;100.00;99622.09;5018420;28;19921;-81
2022/12/14 04:41:33;;;;;;;;;;;;;;;2.39;100.00;99622.47;5031729;28;19921;-80
2022/12/14 04:43:59;;;;;;;;;;;;;;;2.36;100.00;99614.91;5027423;28;19975;-82
2022/12/14 04:46:28;;;;;;;;;;;;;;;2.25;100.00;99604.56;5016611;28;19921;-81
2022/12/14 04:49:11;;;;;;;;;;;;;;;2.49;100.00;99613.72;5020522;28;19932;-81
2022/12/14 04:51:46;;;;;;;;;;;;;;;2.59;100.00;99604.09;5021008;28;20409;-80
2022/12/14 04:54:31;;;;;;;;;;;;;;;2.67;100.00;99613.06;5019201;28;19917;-83
2022/12/14 04:57:03;;;;;;;;;;;;;;;2.85;100.00;99604.44;4975951;28;20020;-85
2022/12/14 04:59:29;;;;;;;;;;;;;;;3.02;100.00;99601.16;5017497;28;19928;-82
2022/12/14 05:02:07;;;;;;;;;;;;;;;2.88;100.00;99603.34;5017434;28;20003;-84
2022/12/14 05:04:42;;;;;;;;;;;;;;;2.91;100.00;99588.22;5015631;28;19933;-84
2022/12/14 05:07:18;;;;;;;;;;;;;;;3.04;100.00;99591.38;5017513;28;19928;-86
2022/12/14 05:10:02;;;;;;;;;;;;;;;3.10;100.00;99592.63;5016864;28;20382;-85
2022/12/14 05:12:34;;;;;;;;;;;;;;;2.96;100.00;99590.41;5015537;28;19925;-86
2022/12/14 05:15:05;;;;;;;;;;;;;;;3.17;100.00;99583.25;5017028;28;20378;-86
2022/12/14 05:17:33;;;;;;;;;;;;;;;3.40;100.00;99578.56;5016566;28;19949;-85
2022/12/14 05:19:59;;;;;;;;;;;;;;;3.13;100.00;99574.00;5016404;28;20449;-86
2022/12/14 05:22:24;;;;;;;;;;;;;;;2.87;100.00;99570.28;5016751;28;20025;-84
2022/12/14 05:24:49;;;;;;;;;;;;;;;3.12;100.00;99573.19;5016430;28;19988;-89
2022/12/14 05:27:15;;;;;;;;;;;;;;;3.11;100.00;99574.19;5017919;28;19917;-86
2022/12/14 05:29:40;;;;;;;;;;;;;;;2.92;100.00;99568.06;5018691;28;19921;-84
2022/12/14 05:32:08;;;;;;;;;;;;;;;2.53;100.00;99565.41;5016276;28;19922;-86
2022/12/14 05:34:33;;;;;;;;;;;;;;;2.31;100.00;99564.81;5018490;28;19929;-88
2022/12/14 05:36:58;;;;;;;;;;;;;;;2.20;100.00;99575.38;5018227;28;19975;-89
2022/12/14 05:39:24;;;;;;;;;;;;;;;2.07;100.00;99576.44;5017708;28;19913;-86
2022/12/14 05:41:49;;;;;;;;;;;;;;;2.33;100.00;99575.97;5016625;28;19925;-85
2022/12/14 05:44:14;;;;;;;;;;;;;;;2.46;100.00;99581.78;5017451;28;20023;-84
2022/12/14 05:46:40;;;;;;;;;;;;;;;2.78;100.00;99578.97;5016160;28;20016;-85
2022/12/14 05:49:05;;;;;;;;;;;;;;;2.73;100.00;99578.53;5016103;28;19975;-85
2022/12/14 05:51:30;;;;;;;;;;;;;;;2.49;100.00;99582.34;5002777;28;19925;-84
2022/12/14 05:53:57;;;;;;;;;;;;;;;2.28;100.00;99573.75;5002783;28;19929;-85
2022/12/14 05:56:22;;;;;;;;;;;;;;;2.18;100.00;99583.34;4997935;28;19980;-87
2022/12/14 05:58:49;;;;;;;;;;;;;;;2.19;100.00;99577.13;5001110;28;19922;-82
2022/12/14 06:01:14;;;;;;;;;;;;;;;2.20;100.00;99581.41;5001209;28;19925;-81
2022/12/14 06:03:40;;;;;;;;;;;;;;;2.26;100.00;99580.88;4999512;28;19922;-86
2022/12/14 06:06:06;;;;;;;;;;;;;;;2.27;100.00;99555.56;4995754;28;20004;-83
2022/12/14 06:08:33;;;;;;;;;;;;;;;2.21;100.00;99562.19;4999533;28;20008;-84
2022/12/14 06:11:07;;;;;;;;;;;;;;;2.13;100.00;99574.22;5002786;28;19929;-87
2022/12/14 06:13:33;;;;;;;;;;;;;;;2.15;100.00;99564.50;4998277;28;20064;-88
2022/12/14 06:19:15;;;;;;;;;;;;;;;2.34;100.00;99578.44;4920630;29;19951;-86
2022/12/14 06:21:41;;;;;;;;;;;;;;;2.39;100.00;99586.72;4937067;29;19948;-87
2022/12/14 06:24:07;;;;;;;;;;;;;;;2.40;100.00;99582.31;4937201;29;19922;-86
2022/12/14 06:26:35;;;;;;;;;;;;;;;2.25;100.00;99558.34;4937193;29;19925;-85
2022/12/14 06:29:01;;;;;;;;;;;;;;;2.21;100.00;99549.09;4942761;28;20452;-85
2022/12/14 06:31:28;;;;;;;;;;;;;;;2.24;100.00;99556.69;4999632;28;19925;-85
2022/12/14 06:33:53;;;;;;;;;;;;;;;2.43;100.00;99577.66;5002789;28;19933;-90
2022/12/14 06:36:22;;;;;;;;;;;;;;;2.40;100.00;99572.69;5001015;28;19922;-87
2022/12/14 06:38:49;;;;;;;;;;;;;;;2.32;100.00;99559.44;4983806;28;19957;-88
2022/12/14 06:41:18;;;;;;;;;;;;;;;2.37;100.00;99557.25;5002660;28;19928;-88
2022/12/14 06:43:43;;;;;;;;;;;;;;;2.65;100.00;99567.94;5003207;28;19929;-87
2022/12/14 06:46:09;;;;;;;;;;;;;;;2.62;100.00;99549.91;4982019;28;19921;-81
2022/12/14 06:48:35;;;;;;;;;;;;;;;2.76;100.00;99546.84;4997566;28;19917;-85
2022/12/14 06:51:00;;;;;;;;;;;;;;;2.89;100.00;99542.19;4997904;28;19929;-87
2022/12/14 06:53:33;;;;;;;;;;;;;;;3.09;100.00;99543.84;4994462;28;19922;-90
2022/12/14 06:56:08;;;;;;;;;;;;;;;3.10;100.00;99556.81;4995802;28;19918;-83
2022/12/14 06:58:34;;;;;;;;;;;;;;;3.15;100.00;99556.38;4996038;28;19926;-83
2022/12/14 07:01:03;;;;;;;;;;;;;;;2.91;100.00;99550.75;4996102;28;19921;-85
2022/12/14 07:03:28;;;;;;;;;;;;;;;3.25;100.00;99546.72;4995879;28;19925;-82
2022/12/14 07:05:57;;;;;;;;;;;;;;;3.14;100.00;99544.28;4995693;28;20298;-86
2022/12/14 07:08:22;;;;;;;;;;;;;;;3.27;100.00;99551.84;4996639;28;20021;-82
2022/12/14 07:10:47;;;;;;;;;;;;;;;3.02;100.00;99559.28;4996473;28;19964;-87
2022/12/14 07:13:13;;;;;;;;;;;;;;;3.25;100.00;99561.63;4997373;28;20349;-82
2022/12/14 07:15:38;;;;;;;;;;;;;;;3.04;100.00;99564.38;4994820;28;19922;-88
2022/12/14 07:18:04;;;;;;;;;;;;;;;2.87;100.00;99567.69;4996630;28;19921;-86
2022/12/14 07:20:30;;;;;;;;;;;;;;;2.65;100.00;99566.16;4994039;28;19968;-87
2022/12/14 07:22:55;;;;;;;;;;;;;;;2.44;100.00;99568.84;4994680;28;19922;-90
2022/12/14 07:25:21;;;;;;;;;;;;;;;2.56;100.00;99570.38;4996244;28;20375;-83
2022/12/14 07:27:46;;;;;;;;;;;;;;;2.54;100.00;99559.25;4996514;28;20300;-84
2022/12/14 07:30:12;;;;;;;;;;;;;;;2.43;100.00;99571.59;4999247;28;19921;-82
2022/12/14 07:32:37;;;;;;;;;;;;;;;2.41;100.00;99571.72;5000879;28;20345;-83
2022/12/14 07:35:03;;;;;;;;;;;;;;;2.28;100.00;99557.25;5015868;28;19933;-80
2022/12/14 07:37:28;;;;;;;;;;;;;;;2.20;100.00;99554.44;5014413;28;19988;-82
2022/12/14 07:39:53;;;;;;;;;;;;;;;2.24;100.00;99551.44;4995843;28;19929;-82
2022/12/14 07:42:19;;;;;;;;;;;;;;;2.22;100.00;99549.94;4995089;28;20012;-84
2022/12/14 07:44:45;;;;;;;;;;;;;;;2.29;100.00;99554.47;4994049;28;19922;-82
2022/12/14 07:47:11;;;;;;;;;;;;;;;2.31;100.00;99560.41;4995002;28;19922;-82
2022/12/14 07:49:36;;;;;;;;;;;;;;;2.51;100.00;99554.28;4996452;28;19922;-83
2022/12/14 07:52:02;;;;;;;;;;;;;;;2.60;100.00;99552.63;4995403;28;19918;-88
2022/12/14 07:54:27;;;;;;;;;;;;;;;2.87;100.00;99554.59;4995205;28;19925;-86
2022/12/14 07:56:53;;;;;;;;;;;;;;;2.51;100.00;99553.44;4996322;28;19922;-89
2022/12/14 07:59:19;;;;;;;;;;;;;;;2.38;100.00;99569.38;4999414;28;19928;-84
2022/12/14 08:01:44;;;;;;;;;;;;;;;2.31;100.00;99568.25;4996362;28;19918;-88
2022/12/14 08:04:11;;;;;;;;;;;;;;;2.30;100.00;99569.22;4996034;28;19933;-81
2022/12/14 08:06:38;;;;;;;;;;;;;;;2.20;100.00;99570.97;4989733;28;19976;-82
2022/12/14 08:09:04;;;;;;;;;;;;;;;2.26;100.00;99575.66;4998079;28;19957;-85
2022/12/14 08:11:29;;;;;;;;;;;;;;;2.31;100.00;99572.66;5008343;28;20440;-80
2022/12/14 08:13:59;;;;;;;;;;;;;;;2.28;100.00;99579.00;4996328;28;19918;-85
2022/12/14 08:16:26;;;;;;;;;;;;;;;2.55;100.00;99581.78;5001844;28;20390;-80
2022/12/14 08:18:52;;;;;;;;;;;;;;;2.62;100.00;99576.06;4972130;28;19925;-84
2022/12/14 08:21:20;;;;;;;;;;;;;;;2.95;100.00;99583.53;4984666;28;19922;-81
2022/12/14 08:23:46;;;;;;;;;;;;;;;2.96;100.00;99579.94;4991402;28;20001;-85
2022/12/14 08:26:11;;;;;;;;;;;;;;;3.01;100.00;99582.97;4991795;28;19953;-85
2022/12/14 08:28:37;;;;;;;;;;;;;;;2.96;100.00;99586.00;5006203;28;19929;-80
2022/12/14 08:31:12;;;;;;;;;;;;;;;2.97;100.00;99603.38;4998351;28;20024;-86
2022/12/14 08:33:38;;;;;;;;;;;;;;;3.02;100.00;99606.38;5008057;28;19926;-84
2022/12/14 08:36:08;;;;;;;;;;;;;;;3.03;100.00;99607.22;5002600;28;19927;-82
2022/12/14 08:38:34;;;;;;;;;;;;;;;3.05;100.00;99606.09;5002433;28;19972;-87
2022/12/14 08:41:03;;;;;;;;;;;;;;;3.18;100.00;99611.09;5009561;28;20318;-81
2022/12/14 08:43:29;;;;;;;;;;;;;;;3.30;100.00;99610.00;5014460;28;19940;-82
2022/12/14 08:45:54;;;;;;;;;;;;;;;3.24;100.00;99610.53;5014868;28;19921;-80
2022/12/14 08:48:19;;;;;;;;;;;;;;;3.34;100.00;99607.91;5005108;28;19928;-83
2022/12/14 08:50:48;;;;;;;;;;;;;;;3.41;100.00;99609.84;5007737;28;19978;-82
2022/12/14 08:53:13;;;;;;;;;;;;;;;3.54;100.00;99607.78;4993869;28;19918;-81
2022/12/14 08:55:39;;;;;;;;;;;;;;;3.61;100.00;99626.38;5014212;28;19921;-83
2022/12/14 08:58:04;;;;;;;;;;;;;;;3.77;100.00;99636.28;5014341;28;19928;-86
2022/12/14 09:00:29;;;;;;;;;;;;;;;3.73;100.00;99638.34;5011312;28;20009;-84
2022/12/14 09:02:58;;;;;;;;;;;;;;;3.96;100.00;99638.84;5028020;23;19905;-80
2022/12/14 09:05:24;;;;;;;;;;;;;;;3.89;100.00;99643.00;4986784;28;19925;-80
2022/12/14 09:07:49;;;;;;;;;;;;;;;3.88;100.00;99636.13;4986344;28;19930;-82
2022/12/14 09:10:15;;;;;;;;;;;;;;;3.89;100.00;99635.97;4994471;28;19925;-83
2022/12/14 09:12:40;;;;;;;;;;;;;;;3.60;100.00;99638.66;4995488;28;19929;-86
2022/12/14 09:15:06;;;;;;;;;;;;;;;3.43;100.00;99647.19;4995136;28;19922;-82
2022/12/14 09:17:33;;;;;;;;;;;;;;;3.68;100.00;99645.00;4994536;28;20009;-81
2022/12/14 09:19:58;;;;;;;;;;;;;;;3.74;100.00;99641.81;4994496;28;19922;-82
2022/12/14 09:22:24;;;;;;;;;;;;;;;3.54;100.00;99644.44;4994280;28;19928;-82
2022/12/14 09:24:51;;;;;;;;;;;;;;;3.46;100.00;99649.53;4961927;28;20402;-83
2022/12/14 09:27:16;;;;;;;;;;;;;;;3.65;100.00;99651.31;4997345;28;19956;-81
2022/12/14 09:29:42;;;;;;;;;;;;;;;3.71;100.00;99666.50;4995239;28;20294;-85
2022/12/14 09:32:08;;;;;;;;;;;;;;;3.55;100.00;99664.41;4993728;28;20004;-82
2022/12/14 09:34:34;;;;;;;;;;;;;;;3.73;100.00;99663.72;4993782;28;20024;-81
2022/12/14 09:37:03;;;;;;;;;;;;;;;3.82;100.00;99657.63;4974120;28;19921;-80
2022/12/14 09:39:29;;;;;;;;;;;;;;;3.84;100.00;99656.56;4994102;28;19922;-82
2022/12/14 09:42:04;;;;;;;;;;;;;;;4.02;100.00;99662.72;4995233;28;19929;-82
2022/12/14 09:44:58;;;;;;;;;;;;;;;3.96;100.00;99657.19;4996499;28;19926;-80
2022/12/14 09:47:35;;;;;;;;;;;;;;;4.01;100.00;99649.75;4982183;28;19973;-81
2022/12/14 09:50:10;;;;;;;;;;;;;;;4.21;100.00;99647.91;5003610;28;19922;-82
2022/12/14 09:52:38;;;;;;;;;;;;;;;3.99;100.00;99646.44;5002406;28;19921;-79
2022/12/14 09:55:10;;;;;;;;;;;;;;;3.95;100.00;99639.81;4998848;28;19918;-82
2022/12/14 09:57:38;;;;;;;;;;;;;;;3.85;100.00;99639.00;4998187;28;19929;-82
2022/12/14 10:00:12;;;;;;;;;;;;;;;3.76;100.00;99645.94;5002053;28;19976;-81
2022/12/14 10:02:55;;;;;;;;;;;;;;;3.53;100.00;99641.94;5001625;28;19922;-81
2022/12/14 10:05:30;;;;;;;;;;;;;;;3.47;100.00;99640.72;5001694;28;19930;-82
2022/12/14 10:07:56;;;;;;;;;;;;;;;3.49;100.00;99633.53;5004430;28;19922;-80
2022/12/14 10:10:31;;;;;;;;;;;;;;;3.58;100.00;99635.31;4994254;28;19988;-80
2022/12/14 10:12:56;;;;;;;;;;;;;;;3.58;100.00;99631.88;5001018;28;19926;-80
2022/12/14 10:15:40;;;;;;;;;;;;;;;3.85;100.00;99631.13;5006501;28;19953;-81
2022/12/14 10:18:15;;;;;;;;;;;;;;;3.75;100.00;99630.34;4992761;28;19922;-81
2022/12/14 10:20:41;;;;;;;;;;;;;;;3.86;100.00;99627.56;5011056;28;19930;-79
2022/12/14 10:23:12;;;;;;;;;;;;;;;3.76;100.00;99621.50;5007600;28;19921;-78
2022/12/14 10:25:42;;;;;;;;;;;;;;;3.71;100.00;99623.75;4993310;28;19933;-80
2022/12/14 10:28:19;;;;;;;;;;;;;;;3.72;100.00;99618.34;5009176;28;20037;-79
2022/12/14 10:30:45;;;;;;;;;;;;;;;3.69;100.00;99609.94;4997084;28;20339;-80
2022/12/14 10:33:16;;;;;;;;;;;;;;;3.64;100.00;99611.22;4975737;28;19984;-80
2022/12/14 10:35:44;;;;;;;;;;;;;;;3.86;100.00;99609.22;4991051;28;19930;-80
2022/12/14 10:38:30;;;;;;;;;;;;;;;3.93;100.00;99591.97;4975201;28;20138;-83
2022/12/14 10:41:03;;;;;;;;;;;;;;;4.10;100.00;99578.09;4992332;28;19922;-83
2022/12/14 10:43:44;;;;;;;;;;;;;;;4.18;100.00;99575.56;4992881;28;19961;-79
2022/12/14 10:46:12;;;;;;;;;;;;;;;4.27;100.00;99574.72;4993069;28;19922;-81
2022/12/14 10:48:49;;;;;;;;;;;;;;;4.44;100.00;99573.94;4991028;28;19918;-81
2022/12/14 10:51:15;;;;;;;;;;;;;;;4.51;100.00;99579.41;4991630;28;19928;-84
2022/12/14 10:53:46;;;;;;;;;;;;;;;4.49;100.00;99576.94;4991479;28;20369;-83
2022/12/14 10:56:15;;;;;;;;;;;;;;;4.48;100.00;99574.47;4974658;28;19930;-80
2022/12/14 10:58:40;;;;;;;;;;;;;;;4.44;100.00;99568.69;4990503;28;19925;-82
2022/12/14 11:01:10;;;;;;;;;;;;;;;4.40;100.00;99569.13;4990672;28;20373;-84
2022/12/14 11:03:36;;;;;;;;;;;;;;;4.46;100.00;99564.13;4991502;28;19934;-85
2022/12/14 11:06:11;;;;;;;;;;;;;;;4.71;100.00;99567.84;4990462;28;19998;-79
2022/12/14 11:08:41;;;;;;;;;;;;;;;4.59;100.00;99564.59;4991580;28;19928;-79
2022/12/14 11:11:13;;;;;;;;;;;;;;;4.41;100.00;99563.72;4991352;28;19929;-80
2022/12/14 11:13:38;;;;;;;;;;;;;;;4.41;100.00;99555.84;4991044;28;19940;-83
2022/12/14 11:16:16;;;;;;;;;;;;;;;4.66;100.00;99554.34;4983753;28;19918;-79
2022/12/14 11:18:42;;;;;;;;;;;;;;;4.78;100.00;99553.16;4989097;28;19929;-79
2022/12/14 11:21:12;;;;;;;;;;;;;;;4.95;100.00;99551.50;4988723;28;20069;-79
2022/12/14 11:23:39;;;;;;;;;;;;;;;4.57;100.00;99550.78;4988282;28;20331;-80
2022/12/14 11:26:14;;;;;;;;;;;;;;;4.33;100.00;99554.94;4989182;28;19925;-82
2022/12/14 11:28:39;;;;;;;;;;;;;;;4.35;100.00;99551.19;4972085;28;20398;-82
2022/12/14 11:31:22;;;;;;;;;;;;;;;4.79;100.00;99546.94;4989662;28;19922;-83
2022/12/14 11:33:49;;;;;;;;;;;;;;;4.55;100.00;99537.00;4988506;28;19981;-81
2022/12/14 11:36:23;;;;;;;;;;;;;;;4.49;100.00;99534.97;4996261;28;19917;-80
2022/12/14 11:39:17;;;;;;;;;;;;;;;4.35;100.00;99532.84;4994754;28;20454;-80
2022/12/14 11:41:45;;;;;;;;;;;;;;;4.45;100.00;99525.75;4973738;28;19941;-80
2022/12/14 11:44:22;;;;;;;;;;;;;;;4.48;100.00;99535.94;4989802;28;19930;-78
2022/12/14 11:46:56;;;;;;;;;;;;;;;4.65;100.00;99529.91;4993536;28;20016;-78
2022/12/14 11:49:25;;;;;;;;;;;;;;;4.92;100.00;99528.19;4994052;28;19922;-82
2022/12/14 11:51:58;;;;;;;;;;;;;;;4.91;100.00;99526.53;4975915;28;19984;-80
2022/12/14 11:54:23;;;;;;;;;;;;;;;5.06;100.00;99535.53;4996725;28;19929;-85
2022/12/14 11:56:50;;;;;;;;;;;;;;;5.12;100.00;99535.75;4994522;28;19926;-82
2022/12/14 11:59:16;;;;;;;;;;;;;;;4.91;100.00;99527.34;4990496;28;20014;-83
2022/12/14 12:01:41;;;;;;;;;;;;;;;5.12;100.00;99533.13;4991676;28;19930;-84
2022/12/14 12:04:11;;;;;;;;;;;;;;;4.91;100.00;99531.78;4989901;28;20391;-84
2022/12/14 12:06:36;;;;;;;;;;;;;;;4.87;100.00;99520.75;4991818;28;19922;-82
2022/12/14 12:09:07;;;;;;;;;;;;;;;4.75;100.00;99529.00;4996446;28;19922;-84
2022/12/14 12:11:33;;;;;;;;;;;;;;;4.59;100.00;99533.13;4978811;28;19930;-84
2022/12/14 12:14:17;;;;;;;;;;;;;;;4.41;100.00;99529.63;4949951;28;19929;-80
2022/12/14 12:16:44;;;;;;;;;;;;;;;4.77;100.00;99534.94;4994453;28;19998;-83
2022/12/14 12:19:09;;;;;;;;;;;;;;;4.57;100.00;99529.78;4995527;28;19921;-83
2022/12/14 12:21:36;;;;;;;;;;;;;;;4.96;100.00;99534.78;5000674;28;19918;-83
2022/12/14 12:24:04;;;;;;;;;;;;;;;4.95;100.00;99533.13;4991319;28;19989;-84
2022/12/14 12:26:30;;;;;;;;;;;;;;;4.82;100.00;99528.25;4996268;28;20052;-85
2022/12/14 12:29:01;;;;;;;;;;;;;;;4.76;100.00;99517.53;4994917;28;19965;-86
2022/12/14 12:31:39;;;;;;;;;;;;;;;4.58;100.00;99510.47;4991926;28;19926;-85
2022/12/14 12:34:15;;;;;;;;;;;;;;;4.45;100.00;99501.31;4994492;28;19932;-87
2022/12/14 12:36:40;;;;;;;;;;;;;;;4.52;100.00;99495.31;4991368;28;20770;-88
2022/12/14 12:39:14;;;;;;;;;;;;;;;4.50;100.00;99496.44;4992431;28;19928;-89
2022/12/14 12:41:52;;;;;;;;;;;;;;;4.77;100.00;99495.56;4994365;28;20010;-85
2022/12/14 12:44:36;;;;;;;;;;;;;;;4.48;100.00;99499.22;4993346;28;19937;-86
2022/12/14 12:47:05;;;;;;;;;;;;;;;4.63;100.00;99486.41;4991368;28;19926;-87
2022/12/14 12:49:32;;;;;;;;;;;;;;;4.58;100.00;99484.22;4991955;28;19921;-86
2022/12/14 12:52:07;;;;;;;;;;;;;;;4.50;100.00;99502.53;4973675;28;19980;-85
2022/12/14 12:54:35;;;;;;;;;;;;;;;4.77;100.00;99501.66;4994984;28;19986;-84
2022/12/14 12:57:05;;;;;;;;;;;;;;;4.69;100.00;99491.88;4985945;28;19930;-83
2022/12/14 12:59:30;;;;;;;;;;;;;;;4.63;100.00;99489.88;5000056;28;19921;-81
2022/12/14 13:02:02;;;;;;;;;;;;;;;4.66;100.00;99486.94;5000139;28;19921;-88
2022/12/14 13:04:32;;;;;;;;;;;;;;;4.64;100.00;99485.41;4998978;28;19926;-89
2022/12/14 13:07:02;;;;;;;;;;;;;;;4.71;100.00;99485.69;4984515;28;20429;-84
2022/12/14 13:09:36;;;;;;;;;;;;;;;4.92;100.00;99478.31;5000067;28;19957;-82
2022/12/14 13:12:06;;;;;;;;;;;;;;;5.24;100.00;99470.66;4999920;28;19925;-81
2022/12/14 13:14:36;;;;;;;;;;;;;;;5.35;100.00;99475.66;4998082;28;19971;-88
2022/12/14 13:17:03;;;;;;;;;;;;;;;4.95;100.00;99470.94;5009084;28;19914;-81